createdAt,value
2022-07-29T00:01:20.342Z,101038.41
2022-07-29T00:03:49.025Z,101033.94
2022-07-29T00:06:17.664Z,101031.50
2022-07-29T00:08:45.478Z,101033.52
2022-07-29T00:11:13.496Z,101032.18
2022-07-29T00:13:41.382Z,101034.92
2022-07-29T00:16:09.214Z,101031.27
2022-07-29T00:18:37.083Z,101032.27
2022-07-29T00:21:04.989Z,101034.05
2022-07-29T00:23:36.714Z,101038.66
2022-07-29T00:26:05.046Z,101039.24
2022-07-29T00:28:32.846Z,101041.33
2022-07-29T00:31:00.751Z,101047.98
2022-07-29T00:33:30.009Z,101049.60
2022-07-29T00:35:57.937Z,101044.77
2022-07-29T00:38:25.834Z,101038.89
2022-07-29T00:40:53.715Z,101043.78
2022-07-29T00:43:22.114Z,101042.83
2022-07-29T00:45:50.013Z,101042.95
2022-07-29T00:48:17.881Z,101042.80
2022-07-29T00:50:45.741Z,101040.30
2022-07-29T00:53:13.779Z,101040.00
2022-07-29T00:55:41.878Z,101037.05
2022-07-29T00:58:09.974Z,101035.63
2022-07-29T01:00:38.055Z,101041.28
2022-07-29T01:03:06.033Z,101037.23
2022-07-29T01:05:50.651Z,101042.66
2022-07-29T01:08:20.525Z,101045.16
2022-07-29T01:10:50.304Z,101045.27
2022-07-29T01:13:19.018Z,101041.14
2022-07-29T01:15:55.426Z,101045.35
2022-07-29T01:18:45.496Z,101043.81
2022-07-29T01:21:46.058Z,101039.81
2022-07-29T01:24:41.040Z,101039.06
2022-07-29T01:28:14.541Z,101038.94
2022-07-29T01:30:45.460Z,101040.45
2022-07-29T01:33:38.149Z,101036.45
2022-07-29T01:36:14.228Z,101040.54
2022-07-29T01:38:50.335Z,101038.45
2022-07-29T01:41:21.419Z,101035.52
2022-07-29T01:44:19.725Z,101030.29
2022-07-29T01:46:55.073Z,101028.91
2022-07-29T01:49:31.649Z,101019.23
2022-07-29T01:52:06.646Z,101025.19
2022-07-29T01:54:49.792Z,101022.39
2022-07-29T01:57:21.886Z,101022.78
2022-07-29T01:59:51.961Z,101021.32
2022-07-29T02:02:22.838Z,101019.36
2022-07-29T02:04:53.178Z,101020.41
2022-07-29T02:07:24.730Z,101020.00
2022-07-29T02:09:54.662Z,101019.73
2022-07-29T02:12:24.623Z,101025.40
2022-07-29T02:14:56.682Z,101024.78
2022-07-29T02:17:33.958Z,101017.18
2022-07-29T02:20:06.057Z,101014.61
2022-07-29T02:22:38.023Z,101008.78
2022-07-29T02:25:14.213Z,101004.80
2022-07-29T02:27:44.140Z,101006.65
2022-07-29T02:30:13.683Z,101009.95
2022-07-29T02:32:43.506Z,101011.90
2022-07-29T02:35:15.144Z,101009.11
2022-07-29T02:37:46.498Z,101005.41
2022-07-29T02:40:16.184Z,101001.80
2022-07-29T02:42:47.338Z,101006.21
2022-07-29T02:45:15.177Z,101008.40
2022-07-29T02:47:48.599Z,101005.84
2022-07-29T02:50:33.572Z,101010.09
2022-07-29T02:53:27.514Z,101007.81
2022-07-29T02:56:11.578Z,101002.33
2022-07-29T02:58:54.540Z,100997.85
2022-07-29T03:01:26.021Z,100995.38
2022-07-29T03:03:55.661Z,100993.29
2022-07-29T03:06:38.038Z,100992.12
2022-07-29T03:09:13.036Z,100989.33
2022-07-29T03:11:49.432Z,100987.64
2022-07-29T03:14:20.972Z,100996.08
2022-07-29T03:16:51.951Z,100994.98
2022-07-29T03:19:21.297Z,100992.58
2022-07-29T03:21:49.777Z,100984.71
2022-07-29T03:24:34.134Z,100987.17
2022-07-29T03:27:04.865Z,100989.81
2022-07-29T03:29:34.715Z,100989.31
2022-07-29T03:32:07.871Z,100988.52
2022-07-29T03:34:38.754Z,100992.14
2022-07-29T03:37:08.719Z,100992.46
2022-07-29T03:39:41.976Z,100994.75
2022-07-29T03:42:14.823Z,100999.38
2022-07-29T03:44:45.130Z,101000.04
2022-07-29T03:47:15.901Z,100998.17
2022-07-29T03:49:47.471Z,100993.41
2022-07-29T03:52:15.859Z,100990.05
2022-07-29T03:54:44.203Z,100991.59
2022-07-29T03:57:13.381Z,100983.14
2022-07-29T03:59:42.200Z,100992.09
2022-07-29T04:02:14.732Z,100996.90
2022-07-29T04:04:43.444Z,101000.31
2022-07-29T04:07:16.131Z,100999.69
2022-07-29T04:09:44.285Z,101002.60
2022-07-29T04:12:12.162Z,101002.42
2022-07-29T04:14:40.014Z,101003.66
2022-07-29T04:17:07.822Z,101005.17
2022-07-29T04:19:35.647Z,101005.72
2022-07-29T04:22:03.648Z,101007.27
2022-07-29T04:24:31.591Z,101010.44
2022-07-29T04:26:59.415Z,101014.00
2022-07-29T04:29:27.153Z,101021.11
2022-07-29T04:31:54.953Z,101021.95
2022-07-29T04:34:22.821Z,101026.40
2022-07-29T04:36:57.183Z,101025.41
2022-07-29T04:39:25.540Z,101027.55
2022-07-29T04:41:57.592Z,101027.02
2022-07-29T04:44:28.767Z,101029.48
2022-07-29T04:46:58.546Z,101030.50
2022-07-29T04:49:26.453Z,101025.95
2022-07-29T04:51:54.547Z,101025.73
2022-07-29T04:54:22.571Z,101024.00
2022-07-29T04:56:50.466Z,101022.65
2022-07-29T04:59:18.383Z,101020.61
2022-07-29T05:01:46.266Z,101025.05
2022-07-29T05:04:14.361Z,101026.86
2022-07-29T05:06:42.475Z,101019.55
2022-07-29T05:09:10.263Z,101019.58
2022-07-29T05:11:37.967Z,101018.95
2022-07-29T05:14:05.989Z,101013.58
2022-07-29T05:16:34.483Z,101008.89
2022-07-29T05:19:02.405Z,101005.71
2022-07-29T05:21:30.173Z,101011.24
2022-07-29T05:23:58.560Z,101007.33
2022-07-29T05:26:26.294Z,101008.11
2022-07-29T05:28:55.587Z,101009.89
2022-07-29T05:31:25.587Z,101012.80
2022-07-29T05:33:53.329Z,101014.13
2022-07-29T05:36:21.027Z,101014.83
2022-07-29T05:38:48.905Z,101016.60
2022-07-29T05:41:16.693Z,101018.45
2022-07-29T05:43:44.483Z,101020.62
2022-07-29T05:46:12.362Z,101021.71
2022-07-29T05:48:40.637Z,101018.92
2022-07-29T05:51:08.405Z,101018.64
2022-07-29T05:53:36.384Z,101012.66
2022-07-29T05:56:08.486Z,101016.95
2022-07-29T05:58:37.253Z,101013.84
2022-07-29T06:01:05.904Z,101018.86
2022-07-29T06:03:33.920Z,101022.58
2022-07-29T06:06:01.725Z,101021.30
2022-07-29T06:08:29.605Z,101016.20
2022-07-29T06:10:57.507Z,101013.46
2022-07-29T06:13:25.401Z,101010.74
2022-07-29T06:15:53.299Z,101005.58
2022-07-29T06:18:24.667Z,101004.39
2022-07-29T06:20:54.601Z,101002.66
2022-07-29T06:23:22.772Z,101002.09
2022-07-29T06:25:50.617Z,101002.27
2022-07-29T06:28:18.425Z,101006.16
2022-07-29T06:30:46.317Z,101008.43
2022-07-29T06:33:19.792Z,101006.61
2022-07-29T06:35:53.322Z,101009.51
2022-07-29T06:38:33.814Z,101013.48
2022-07-29T06:41:11.036Z,101013.52
2022-07-29T06:43:52.153Z,101011.75
2022-07-29T06:46:23.822Z,101013.23
2022-07-29T06:48:53.374Z,101011.66
2022-07-29T06:51:23.120Z,101009.97
2022-07-29T06:53:59.700Z,101008.17
2022-07-29T06:56:38.927Z,101004.02
2022-07-29T06:59:13.332Z,101000.75
2022-07-29T07:01:44.449Z,101002.42
2022-07-29T07:04:14.738Z,101000.79
2022-07-29T07:06:43.028Z,100998.41
2022-07-29T07:09:10.839Z,100996.13
2022-07-29T07:11:38.601Z,100999.77
2022-07-29T07:14:06.352Z,100990.63
2022-07-29T07:16:35.670Z,100993.59
2022-07-29T07:19:03.798Z,100989.16
2022-07-29T07:21:31.631Z,100988.67
2022-07-29T07:24:00.550Z,100982.27
2022-07-29T07:26:28.864Z,100983.69
2022-07-29T07:28:56.700Z,100980.23
2022-07-29T07:31:24.595Z,100984.02
2022-07-29T07:33:54.505Z,100980.53
2022-07-29T07:36:23.661Z,100982.29
2022-07-29T07:38:51.598Z,100985.30
2022-07-29T07:41:19.555Z,100987.08
2022-07-29T07:43:47.664Z,100985.41
2022-07-29T07:46:16.338Z,100989.71
2022-07-29T07:48:44.466Z,100991.96
2022-07-29T07:51:12.607Z,100992.92
2022-07-29T07:53:40.439Z,100989.98
2022-07-29T07:56:10.851Z,100991.15
2022-07-29T07:58:40.101Z,100995.50
2022-07-29T08:01:09.912Z,100995.08
2022-07-29T08:03:38.576Z,100992.50
2022-07-29T08:06:07.606Z,100991.61
2022-07-29T08:08:36.465Z,100992.56
2022-07-29T08:11:09.057Z,100996.02
2022-07-29T08:13:39.083Z,100999.30
2022-07-29T08:16:12.996Z,101002.63
2022-07-29T08:18:42.836Z,101002.60
2022-07-29T08:21:10.887Z,101004.61
2022-07-29T08:23:57.745Z,101003.56
2022-07-29T08:26:26.713Z,101011.27
2022-07-29T08:28:54.953Z,101013.14
2022-07-29T08:31:22.820Z,101016.42
2022-07-29T08:33:50.772Z,101014.16
2022-07-29T08:36:18.865Z,101015.86
2022-07-29T08:38:46.820Z,101017.39
2022-07-29T08:41:14.708Z,101014.33
2022-07-29T08:43:43.054Z,101016.29
2022-07-29T08:46:11.435Z,101017.10
2022-07-29T08:48:40.307Z,101014.27
2022-07-29T08:51:13.693Z,101012.92
2022-07-29T08:53:44.865Z,101009.81
2022-07-29T08:56:23.062Z,101012.20
2022-07-29T08:58:52.302Z,101012.08
2022-07-29T09:01:35.182Z,101011.73
2022-07-29T09:04:09.492Z,101013.02
2022-07-29T09:06:40.234Z,101007.57
2022-07-29T09:09:09.570Z,101014.31
2022-07-29T09:11:38.974Z,101017.63
2022-07-29T09:14:07.025Z,101018.26
2022-07-29T09:17:08.721Z,101013.71
2022-07-29T09:19:45.410Z,101014.02
2022-07-29T09:22:31.270Z,101008.67
2022-07-29T09:24:59.070Z,101011.08
2022-07-29T09:27:27.606Z,101012.92
2022-07-29T09:30:04.840Z,101016.81
2022-07-29T09:32:54.390Z,101013.66
2022-07-29T09:35:25.698Z,101012.47
2022-07-29T09:37:54.382Z,101009.74
2022-07-29T09:40:29.086Z,101008.42
2022-07-29T09:42:58.258Z,101004.10
2022-07-29T09:45:35.833Z,101005.08
2022-07-29T09:48:19.129Z,101002.23
2022-07-29T09:50:50.532Z,101000.15
2022-07-29T09:53:39.114Z,101002.17
2022-07-29T09:56:07.185Z,100994.28
2022-07-29T09:58:35.626Z,100994.34
2022-07-29T10:01:04.886Z,100992.48
2022-07-29T10:03:33.111Z,100987.69
2022-07-29T10:06:10.778Z,100988.58
2022-07-29T10:08:39.103Z,100990.81
2022-07-29T10:11:16.327Z,100983.68
2022-07-29T10:13:46.917Z,100984.16
2022-07-29T10:16:16.658Z,100985.06
2022-07-29T10:18:47.713Z,100982.09
2022-07-29T10:21:35.317Z,100976.63
2022-07-29T10:24:07.056Z,100976.57
2022-07-29T10:26:43.659Z,100971.17
2022-07-29T10:29:11.536Z,100968.63
2022-07-29T10:32:05.580Z,100966.23
2022-07-29T10:35:22.670Z,100955.42
2022-07-29T10:38:05.291Z,100954.13
2022-07-29T10:41:32.003Z,100955.31
2022-07-29T10:44:17.106Z,100954.25
2022-07-29T10:46:47.754Z,100949.95
2022-07-29T10:49:18.696Z,100949.30
2022-07-29T10:52:11.502Z,100946.98
2022-07-29T10:54:52.013Z,100943.89
2022-07-29T10:57:53.341Z,100942.71
2022-07-29T11:00:16.945Z,100934.45
2022-07-29T11:02:49.466Z,100932.45
2022-07-29T11:05:20.476Z,100934.86
2022-07-29T11:08:20.268Z,100933.64
2022-07-29T11:11:19.659Z,100933.95
2022-07-29T11:13:56.957Z,100938.67
2022-07-29T11:16:25.593Z,100934.51
2022-07-29T11:19:15.681Z,100940.30
2022-07-29T11:24:39.655Z,100939.63
2022-07-29T11:27:23.196Z,100932.64
2022-07-29T11:30:04.650Z,100928.13
2022-07-29T11:32:48.430Z,100934.83
2022-07-29T11:35:37.026Z,100932.40
2022-07-29T11:38:28.624Z,100933.48
2022-07-29T11:41:31.743Z,100931.14
2022-07-29T11:44:01.381Z,100922.48
2022-07-29T11:46:53.954Z,100918.27
2022-07-29T11:49:32.182Z,100909.02
2022-07-29T11:52:04.920Z,100906.07
2022-07-29T11:54:52.124Z,100907.37
2022-07-29T11:57:36.170Z,100905.88
2022-07-29T12:00:14.664Z,100901.41
2022-07-29T12:02:48.704Z,100898.90
2022-07-29T12:05:35.886Z,100900.23
2022-07-29T12:08:12.677Z,100903.77
2022-07-29T12:10:43.810Z,100900.48
2022-07-29T12:13:13.766Z,100900.96
2022-07-29T12:15:46.805Z,100892.29
2022-07-29T12:18:19.044Z,100900.27
2022-07-29T12:20:48.820Z,100890.02
2022-07-29T12:23:17.408Z,100885.04
2022-07-29T12:25:49.874Z,100880.73
2022-07-29T12:28:26.830Z,100884.52
2022-07-29T12:30:55.625Z,100881.97
2022-07-29T12:33:30.550Z,100879.04
2022-07-29T12:36:06.706Z,100875.48
2022-07-29T12:38:37.998Z,100873.86
2022-07-29T12:41:05.829Z,100870.55
2022-07-29T12:43:33.768Z,100870.35
2022-07-29T12:46:16.098Z,100865.56
2022-07-29T12:48:44.768Z,100861.72
2022-07-29T12:51:15.192Z,100857.20
2022-07-29T12:54:11.390Z,100849.94
2022-07-29T12:56:43.512Z,100848.36
2022-07-29T12:59:23.178Z,100856.70
2022-07-29T13:01:53.120Z,100856.58
2022-07-29T13:04:30.182Z,100855.52
2022-07-29T13:07:10.343Z,100852.23
2022-07-29T13:09:44.501Z,100845.20
2022-07-29T13:12:14.702Z,100855.65
2022-07-29T13:14:46.325Z,100854.33
2022-07-29T13:17:21.735Z,100854.31
2022-07-29T13:20:10.410Z,100847.25
2022-07-29T13:22:40.838Z,100841.66
2022-07-29T13:25:10.716Z,100835.92
2022-07-29T13:27:40.697Z,100832.44
2022-07-29T13:30:10.722Z,100833.65
2022-07-29T13:32:38.675Z,100835.88
2022-07-29T13:35:09.475Z,100833.08
2022-07-29T13:37:40.480Z,100830.15
2022-07-29T13:40:10.857Z,100823.42
2022-07-29T13:42:39.745Z,100818.59
2022-07-29T13:45:09.117Z,100823.46
2022-07-29T13:47:37.798Z,100813.19
2022-07-29T13:50:09.000Z,100813.73
2022-07-29T13:52:39.122Z,100804.33
2022-07-29T13:55:09.157Z,100799.08
2022-07-29T13:57:37.078Z,100797.84
2022-07-29T14:00:05.568Z,100795.70
2022-07-29T14:02:36.190Z,100796.32
2022-07-29T14:05:08.212Z,100795.31
2022-07-29T14:07:40.057Z,100790.72
2022-07-29T14:10:08.947Z,100788.30
2022-07-29T14:12:37.247Z,100789.13
2022-07-29T14:15:05.845Z,100792.29
2022-07-29T14:17:33.566Z,100794.88
2022-07-29T14:20:02.008Z,100796.69
2022-07-29T14:22:30.380Z,100786.36
2022-07-29T14:24:58.163Z,100789.05
2022-07-29T14:27:37.420Z,100785.19
2022-07-29T14:30:07.859Z,100777.88
2022-07-29T14:32:35.662Z,100778.71
2022-07-29T14:35:04.769Z,100778.80
2022-07-29T14:37:40.234Z,100777.61
2022-07-29T14:40:10.764Z,100779.03
2022-07-29T14:42:39.326Z,100780.02
2022-07-29T14:45:10.073Z,100779.08
2022-07-29T14:47:39.573Z,100783.27
2022-07-29T14:50:08.115Z,100781.89
2022-07-29T14:52:36.297Z,100778.16
2022-07-29T14:55:05.844Z,100782.85
2022-07-29T14:57:48.477Z,100774.74
2022-07-29T15:00:17.339Z,100777.56
2022-07-29T15:03:01.264Z,100780.69
2022-07-29T15:05:32.241Z,100774.70
2022-07-29T15:08:00.735Z,100772.52
2022-07-29T15:10:28.918Z,100775.75
2022-07-29T15:12:58.113Z,100773.15
2022-07-29T15:15:26.567Z,100771.14
2022-07-29T15:17:54.445Z,100767.31
2022-07-29T15:20:22.424Z,100767.51
2022-07-29T15:22:50.323Z,100761.23
2022-07-29T15:25:18.345Z,100762.06
2022-07-29T15:27:48.806Z,100761.94
2022-07-29T15:30:32.598Z,100762.60
2022-07-29T15:33:05.317Z,100766.02
2022-07-29T15:35:33.469Z,100761.17
2022-07-29T15:38:09.412Z,100762.98
2022-07-29T15:40:42.157Z,100758.90
2022-07-29T15:43:10.289Z,100752.73
2022-07-29T15:45:41.068Z,100753.20
2022-07-29T15:48:13.252Z,100745.93
2022-07-29T15:50:43.214Z,100744.90
2022-07-29T15:53:15.247Z,100748.69
2022-07-29T15:55:43.049Z,100750.41
2022-07-29T15:58:12.371Z,100750.39
2022-07-29T16:00:40.329Z,100750.20
2022-07-29T16:03:08.410Z,100749.07
2022-07-29T16:05:36.293Z,100749.42
2022-07-29T16:08:05.837Z,100739.58
2022-07-29T16:10:34.208Z,100740.14
2022-07-29T16:13:02.002Z,100736.30
2022-07-29T16:15:29.838Z,100742.14
2022-07-29T16:17:57.593Z,100743.90
2022-07-29T16:20:25.445Z,100744.41
2022-07-29T16:22:54.474Z,100748.80
2022-07-29T16:25:38.317Z,100747.86
2022-07-29T16:28:10.991Z,100745.30
2022-07-29T16:30:38.798Z,100738.96
2022-07-29T16:33:08.441Z,100737.38
2022-07-29T16:35:40.185Z,100738.88
2022-07-29T16:38:08.148Z,100736.81
2022-07-29T16:40:35.885Z,100739.55
2022-07-29T16:43:03.748Z,100733.10
2022-07-29T16:45:31.596Z,100733.84
2022-07-29T16:48:15.252Z,100732.21
2022-07-29T16:50:46.245Z,100728.74
2022-07-29T16:53:14.075Z,100729.39
2022-07-29T16:55:42.665Z,100726.50
2022-07-29T16:58:11.595Z,100727.88
2022-07-29T17:00:39.596Z,100728.77
2022-07-29T17:03:07.636Z,100725.81
2022-07-29T17:05:50.428Z,100727.30
2022-07-29T17:08:22.963Z,100725.73
2022-07-29T17:10:52.292Z,100723.65
2022-07-29T17:13:20.392Z,100721.40
2022-07-29T17:15:48.422Z,100717.39
2022-07-29T17:18:16.282Z,100719.70
2022-07-29T17:20:45.686Z,100720.82
2022-07-29T17:23:13.445Z,100720.63
2022-07-29T17:25:41.260Z,100717.42
2022-07-29T17:28:09.102Z,100713.41
2022-07-29T17:30:37.010Z,100714.51
2022-07-29T17:33:04.866Z,100711.88
2022-07-29T17:35:51.297Z,100714.72
2022-07-29T17:38:19.052Z,100720.39
2022-07-29T17:40:46.845Z,100720.13
2022-07-29T17:43:14.729Z,100720.83
2022-07-29T17:45:49.574Z,100719.32
2022-07-29T17:48:22.806Z,100721.91
2022-07-29T17:50:52.657Z,100720.44
2022-07-29T17:53:20.454Z,100720.83
2022-07-29T17:55:49.632Z,100727.05
2022-07-29T17:58:17.628Z,100725.36
2022-07-29T18:00:45.768Z,100729.30
2022-07-29T18:03:14.113Z,100725.63
2022-07-29T18:05:42.341Z,100730.85
2022-07-29T18:08:10.837Z,100728.80
2022-07-29T18:10:38.834Z,100733.46
2022-07-29T18:13:07.354Z,100732.42
2022-07-29T18:15:35.208Z,100736.48
2022-07-29T18:18:03.189Z,100737.62
2022-07-29T18:20:31.336Z,100738.77
2022-07-29T18:22:59.672Z,100737.14
2022-07-29T18:25:28.856Z,100741.08
2022-07-29T18:28:00.355Z,100740.30
2022-07-29T18:30:30.005Z,100737.73
2022-07-29T18:33:23.142Z,100743.73
2022-07-29T18:35:48.506Z,100746.61
2022-07-29T18:38:16.983Z,100746.67
2022-07-29T18:40:45.886Z,100745.63
2022-07-29T18:43:14.075Z,100747.02
2022-07-29T18:45:42.382Z,100747.38
2022-07-29T18:48:12.986Z,100748.27
2022-07-29T18:50:42.359Z,100750.05
2022-07-29T18:53:10.240Z,100751.91
2022-07-29T18:55:38.086Z,100751.41
2022-07-29T18:58:06.051Z,100753.70
2022-07-29T19:00:33.831Z,100752.26
2022-07-29T19:03:03.272Z,100755.22
2022-07-29T19:05:31.499Z,100758.02
2022-07-29T19:07:59.670Z,100759.60
2022-07-29T19:10:27.930Z,100758.89
2022-07-29T19:12:58.106Z,100764.29
2022-07-29T19:15:26.286Z,100764.91
2022-07-29T19:18:00.946Z,100767.77
2022-07-29T19:20:29.419Z,100773.47
2022-07-29T19:22:57.427Z,100775.58
2022-07-29T19:25:25.575Z,100778.63
2022-07-29T19:27:53.441Z,100781.50
2022-07-29T19:30:21.858Z,100783.35
2022-07-29T19:32:52.141Z,100783.70
2022-07-29T19:35:28.424Z,100780.00
2022-07-29T19:37:58.916Z,100777.98
2022-07-29T19:40:28.165Z,100778.88
2022-07-29T19:42:56.426Z,100775.77
2022-07-29T19:45:26.200Z,100777.52
2022-07-29T19:48:00.696Z,100777.48
2022-07-29T19:50:29.957Z,100771.40
2022-07-29T19:53:01.402Z,100768.31
2022-07-29T19:55:29.382Z,100768.81
2022-07-29T19:57:59.245Z,100770.84
2022-07-29T20:00:28.893Z,100773.80
2022-07-29T20:02:58.928Z,100775.32
2022-07-29T20:05:28.546Z,100775.20
2022-07-29T20:07:56.963Z,100774.99
2022-07-29T20:10:24.891Z,100773.59
2022-07-29T20:12:53.760Z,100771.67
2022-07-29T20:15:23.249Z,100769.81
2022-07-29T20:17:56.616Z,100770.98
2022-07-29T20:20:25.951Z,100772.06
2022-07-29T20:22:54.495Z,100774.38
2022-07-29T20:25:24.049Z,100767.90
2022-07-29T20:27:55.107Z,100770.27
2022-07-29T20:30:27.057Z,100765.92
2022-07-29T20:32:55.588Z,100769.64
2022-07-29T20:35:23.611Z,100763.82
2022-07-29T20:37:56.127Z,100763.32
2022-07-29T20:40:26.106Z,100765.98
2022-07-29T20:43:02.440Z,100765.86
2022-07-29T20:45:30.408Z,100764.02
2022-07-29T20:47:58.459Z,100765.79
2022-07-29T20:50:27.187Z,100764.30
2022-07-29T20:52:54.988Z,100761.41
2022-07-29T20:55:22.886Z,100762.91
2022-07-29T20:57:50.678Z,100769.10
2022-07-29T21:00:18.554Z,100768.98
2022-07-29T21:02:46.651Z,100767.53
2022-07-29T21:05:15.102Z,100764.79
2022-07-29T21:07:42.884Z,100765.81
2022-07-29T21:10:11.107Z,100770.19
2022-07-29T21:12:38.985Z,100770.98
2022-07-29T21:15:08.014Z,100776.71
2022-07-29T21:17:36.188Z,100780.16
2022-07-29T21:20:08.528Z,100783.10
2022-07-29T21:22:36.458Z,100792.17
2022-07-29T21:25:04.913Z,100792.83
2022-07-29T21:27:51.221Z,100796.35
2022-07-29T21:30:19.188Z,100802.73
2022-07-29T21:32:47.141Z,100804.02
2022-07-29T21:35:35.783Z,100803.94
2022-07-29T21:38:02.859Z,100802.94
2022-07-29T21:40:30.752Z,100801.69
2022-07-29T21:42:58.666Z,100800.64
2022-07-29T21:45:26.790Z,100797.23
2022-07-29T21:47:54.586Z,100796.63
2022-07-29T21:50:22.311Z,100797.80
2022-07-29T21:52:50.067Z,100795.63
2022-07-29T21:55:18.616Z,100799.41
2022-07-29T21:57:47.260Z,100793.58
2022-07-29T22:00:15.724Z,100792.45
2022-07-29T22:02:43.725Z,100787.25
2022-07-29T22:05:12.469Z,100787.12
2022-07-29T22:07:54.532Z,100788.30
2022-07-29T22:10:28.454Z,100789.26
2022-07-29T22:12:59.044Z,100791.09
2022-07-29T22:15:28.447Z,100796.29
2022-07-29T22:17:58.317Z,100799.88
2022-07-29T22:20:26.430Z,100802.05
2022-07-29T22:22:54.803Z,100799.52
2022-07-29T22:25:22.638Z,100799.77
2022-07-29T22:27:50.889Z,100801.63
2022-07-29T22:30:19.802Z,100801.30
2022-07-29T22:32:49.507Z,100795.87
2022-07-29T22:35:17.650Z,100796.98
2022-07-29T22:37:45.530Z,100789.86
2022-07-29T22:40:13.306Z,100789.67
2022-07-29T22:42:41.145Z,100789.30
2022-07-29T22:45:10.775Z,100793.36
2022-07-29T22:47:48.019Z,100793.50
2022-07-29T22:50:17.474Z,100790.41
2022-07-29T22:52:46.156Z,100792.75
2022-07-29T22:55:15.186Z,100794.46
2022-07-29T22:57:43.079Z,100789.88
2022-07-29T23:00:12.702Z,100790.48
2022-07-29T23:02:41.450Z,100786.58
2022-07-29T23:05:10.484Z,100782.77
2022-07-29T23:07:38.611Z,100783.28
2022-07-29T23:10:06.944Z,100781.45
2022-07-29T23:12:34.895Z,100781.20
2022-07-29T23:15:04.412Z,100778.42
2022-07-29T23:17:36.239Z,100772.92
2022-07-29T23:20:08.854Z,100767.16
2022-07-29T23:22:37.836Z,100763.52
2022-07-29T23:25:06.451Z,100756.89
2022-07-29T23:27:34.205Z,100754.00
2022-07-29T23:30:02.719Z,100749.92
2022-07-29T23:32:30.619Z,100745.50
2022-07-29T23:34:58.409Z,100746.70
2022-07-29T23:37:26.890Z,100744.36
2022-07-29T23:39:55.142Z,100741.27
2022-07-29T23:42:23.129Z,100732.48
2022-07-29T23:44:51.438Z,100723.61
2022-07-29T23:47:19.218Z,100723.32
2022-07-29T23:49:49.816Z,100726.58
2022-07-29T23:52:17.726Z,100725.01
2022-07-29T23:54:45.520Z,100729.61
2022-07-29T23:57:13.649Z,100733.09
2022-07-29T23:59:41.677Z,100727.17
